首页
METAR-TAF:

METAR-TAF

机场 :

桑德贝, 安大略省, 加拿大

纬度: 48-22N, 经度: 089-19W, 海拔: 199米

当前天气观测

该预报发布于1小时和5分钟前的23:00 UTC
风速9节,风向西
温度 23°C
湿度 22%
气压 1018 hPa
能見度: 32.2公里
少量云层高于5500英尺
散云层高于11000英尺
多云层高于28000英尺

METAR: CYQT 312300Z 28009KT 20SM FEW055 SCT110 BKN280 23/00 A3007 RMK CU1AC3CI2 SLP187 DENSITY ALT 1600FT

时间: 20:05 (00:05 UTC)

预报

该预报发布于4小时和35分钟前的19:30 UTC
预报有效从31日的 20点(UTC)到 01日的 08点(UTC)
风速8节,风向西转西北,有时为18节阵风
能見度: 10公里
少量云层高于8000英尺
成为
从 01日的 01点(UTC)到 01日的 03点(UTC)
风速5节,风向西
少量云层高于8000英尺
散云层高于20000英尺

TAF: CYQT 311930Z 3120/0108 30008G18KT P6SM FEW080 BECMG 0101/0103 28005KT FEW080 SCT200 RMK NXT FCST BY 010200Z

超过4000个机场的气象观测和天气预报(METAR&TAF报告)。

可查询的气象台以黄色和红色小点在地图上表示。

将鼠标移到小点上方,可查看气象台名称。

然后点击查看天气观测和预报。

如需切换地图:点击带黑十字的绿色按钮放大地图;点击带横线的绿色按钮缩小地图;或者点击绿色箭头查看邻近地区的地图。


METAR-TAF: